createdAt,value
2018-03-25T00:00:52.646Z,945.88
2018-03-25T00:01:52.618Z,945.87
2018-03-25T00:02:52.590Z,945.89
2018-03-25T00:03:53.313Z,945.90
2018-03-25T00:04:52.534Z,945.89
2018-03-25T00:05:52.508Z,945.91
2018-03-25T00:06:52.478Z,945.91
2018-03-25T00:07:52.451Z,945.89
2018-03-25T00:08:52.423Z,945.91
2018-03-25T00:09:52.398Z,945.94
2018-03-25T00:10:52.367Z,945.92
2018-03-25T00:11:52.341Z,945.93
2018-03-25T00:12:52.311Z,945.93
2018-03-25T00:13:52.283Z,945.95
2018-03-25T00:14:52.256Z,945.95
2018-03-25T00:15:52.233Z,945.94
2018-03-25T00:16:52.200Z,945.94
2018-03-25T00:17:52.173Z,946.01
2018-03-25T00:18:52.143Z,945.99
2018-03-25T00:19:52.154Z,946.01
2018-03-25T00:20:52.087Z,946.04
2018-03-25T00:21:52.060Z,946.06
2018-03-25T00:22:52.030Z,946.02
2018-03-25T00:23:52.004Z,946.05
2018-03-25T00:24:51.975Z,946.03
2018-03-25T00:25:51.949Z,946.06
2018-03-25T00:26:51.918Z,946.07
2018-03-25T00:27:51.890Z,946.06
2018-03-25T00:28:51.863Z,946.04
2018-03-25T00:29:51.836Z,946.06
2018-03-25T00:30:51.806Z,946.09
2018-03-25T00:31:51.778Z,946.08
2018-03-25T00:32:51.749Z,946.13
2018-03-25T00:33:51.721Z,946.13
2018-03-25T00:34:51.699Z,946.11
2018-03-25T00:35:51.667Z,946.11
2018-03-25T00:36:51.637Z,946.07
2018-03-25T00:37:51.610Z,946.11
2018-03-25T00:38:51.582Z,946.11
2018-03-25T00:39:51.553Z,946.11
2018-03-25T00:40:51.528Z,946.11
2018-03-25T00:41:51.498Z,946.13
2018-03-25T00:42:51.468Z,946.17
2018-03-25T00:43:51.441Z,946.17
2018-03-25T00:44:51.412Z,946.18
2018-03-25T00:45:51.384Z,946.20
2018-03-25T00:46:51.355Z,946.16
2018-03-25T00:47:51.329Z,946.18
2018-03-25T00:48:51.299Z,946.18
2018-03-25T00:49:51.276Z,946.18
2018-03-25T00:50:51.243Z,946.16
2018-03-25T00:51:51.217Z,946.17
2018-03-25T00:52:51.239Z,946.16
2018-03-25T00:53:51.159Z,946.16
2018-03-25T00:54:51.130Z,946.18
2018-03-25T00:55:51.102Z,946.16
2018-03-25T00:56:51.073Z,946.15
2018-03-25T00:57:51.045Z,946.19
2018-03-25T00:58:51.016Z,946.21
2018-03-25T00:59:50.988Z,946.22
2018-03-25T01:00:50.958Z,946.20
2018-03-25T01:01:50.931Z,946.20
2018-03-25T01:02:50.901Z,946.22
2018-03-25T01:03:50.873Z,946.24
2018-03-25T01:04:50.845Z,946.27
2018-03-25T01:05:50.817Z,946.28
2018-03-25T01:06:50.787Z,946.31
2018-03-25T01:07:50.761Z,946.31
2018-03-25T01:08:50.732Z,946.31
2018-03-25T01:09:50.703Z,946.31
2018-03-25T01:10:50.675Z,946.29
2018-03-25T01:11:50.647Z,946.31
2018-03-25T01:12:50.619Z,946.26
2018-03-25T01:13:50.589Z,946.25
2018-03-25T01:14:50.563Z,946.24
2018-03-25T01:15:50.533Z,946.23
2018-03-25T01:16:50.504Z,946.21
2018-03-25T01:17:50.477Z,946.21
2018-03-25T01:18:50.449Z,946.20
2018-03-25T01:19:50.420Z,946.19
2018-03-25T01:20:50.391Z,946.19
2018-03-25T01:21:50.365Z,946.20
2018-03-25T01:22:50.335Z,946.18
2018-03-25T01:23:50.306Z,946.16
2018-03-25T01:24:50.277Z,946.15
2018-03-25T01:25:50.249Z,946.15
2018-03-25T01:26:50.220Z,946.16
2018-03-25T01:27:50.193Z,946.19
2018-03-25T01:28:50.163Z,946.24
2018-03-25T01:29:50.136Z,946.19
2018-03-25T01:30:50.106Z,946.27
2018-03-25T01:31:50.078Z,946.29
2018-03-25T01:32:50.051Z,946.29
2018-03-25T01:33:50.022Z,946.27
2018-03-25T01:34:49.992Z,946.29
2018-03-25T01:35:49.963Z,946.24
2018-03-25T01:36:49.936Z,946.25
2018-03-25T01:37:49.913Z,946.18
2018-03-25T01:38:49.878Z,946.19
2018-03-25T01:39:49.850Z,946.17
2018-03-25T01:40:49.822Z,946.18
2018-03-25T01:41:49.794Z,946.19
2018-03-25T01:42:49.763Z,946.24
2018-03-25T01:43:49.736Z,946.22
2018-03-25T01:44:49.707Z,946.20
2018-03-25T01:45:49.678Z,946.18
2018-03-25T01:46:49.650Z,946.19
2018-03-25T01:47:50.472Z,946.15
2018-03-25T01:48:49.594Z,946.18
2018-03-25T01:49:49.568Z,946.19
2018-03-25T01:50:49.536Z,946.23
2018-03-25T01:51:49.507Z,946.16
2018-03-25T01:52:49.478Z,946.24
2018-03-25T01:53:49.461Z,946.22
2018-03-25T01:54:49.421Z,946.23
2018-03-25T01:55:49.393Z,946.24
2018-03-25T01:56:49.365Z,946.26
2018-03-25T01:57:49.337Z,946.26
2018-03-25T01:58:50.058Z,946.27
2018-03-25T01:59:49.280Z,946.24
2018-03-25T02:00:49.252Z,946.26
2018-03-25T02:01:49.227Z,946.27
2018-03-25T02:02:49.193Z,946.31
2018-03-25T02:03:49.168Z,946.33
2018-03-25T02:04:49.138Z,946.36
2018-03-25T02:05:49.108Z,946.30
2018-03-25T02:06:49.079Z,946.34
2018-03-25T02:07:49.052Z,946.31
2018-03-25T02:08:49.028Z,946.31
2018-03-25T02:09:48.996Z,946.31
2018-03-25T02:10:48.967Z,946.30
2018-03-25T02:11:48.939Z,946.34
2018-03-25T02:12:48.909Z,946.28
2018-03-25T02:13:48.881Z,946.31
2018-03-25T02:14:48.853Z,946.32
2018-03-25T02:15:48.824Z,946.32
2018-03-25T02:16:48.796Z,946.35
2018-03-25T02:17:48.767Z,946.38
2018-03-25T02:18:48.738Z,946.39
2018-03-25T02:19:48.713Z,946.35
2018-03-25T02:20:48.683Z,946.37
2018-03-25T02:21:48.653Z,946.41
2018-03-25T02:22:48.625Z,946.39
2018-03-25T02:23:48.596Z,946.43
2018-03-25T02:24:48.568Z,946.42
2018-03-25T02:25:48.538Z,946.39
2018-03-25T02:26:48.511Z,946.44
2018-03-25T02:27:48.482Z,946.44
2018-03-25T02:28:48.453Z,946.40
2018-03-25T02:29:48.426Z,946.43
2018-03-25T02:30:48.398Z,946.44
2018-03-25T02:31:48.369Z,946.47
2018-03-25T02:32:48.338Z,946.42
2018-03-25T02:33:48.317Z,946.44
2018-03-25T02:34:48.284Z,946.51
2018-03-25T02:35:48.256Z,946.46
2018-03-25T02:36:48.227Z,946.47
2018-03-25T02:37:48.200Z,946.43
2018-03-25T02:38:48.171Z,946.50
2018-03-25T02:39:48.142Z,946.50
2018-03-25T02:40:48.137Z,946.47
2018-03-25T02:41:48.085Z,946.47
2018-03-25T02:42:48.057Z,946.49
2018-03-25T02:43:48.029Z,946.47
2018-03-25T02:44:48.002Z,946.46
2018-03-25T02:45:47.975Z,946.47
2018-03-25T02:46:47.943Z,946.50
2018-03-25T02:47:47.918Z,946.47
2018-03-25T02:48:47.887Z,946.49
2018-03-25T02:49:47.866Z,946.49
2018-03-25T02:50:48.584Z,946.46
2018-03-25T02:51:47.803Z,946.49
2018-03-25T02:52:47.777Z,946.49
2018-03-25T02:53:47.746Z,946.48
2018-03-25T02:54:47.717Z,946.49
2018-03-25T02:55:47.696Z,946.48
2018-03-25T02:56:47.667Z,946.48
2018-03-25T02:57:47.634Z,946.50
2018-03-25T02:58:47.604Z,946.52
2018-03-25T02:59:47.577Z,946.54
2018-03-25T03:00:47.562Z,946.55
2018-03-25T03:01:47.523Z,946.51
2018-03-25T03:02:47.494Z,946.52
2018-03-25T03:03:47.466Z,946.53
2018-03-25T03:04:47.438Z,946.52
2018-03-25T03:05:47.409Z,946.49
2018-03-25T03:06:47.380Z,946.45
2018-03-25T03:07:47.354Z,946.47
2018-03-25T03:08:47.325Z,946.49
2018-03-25T03:09:47.305Z,946.50
2018-03-25T03:10:47.267Z,946.46
2018-03-25T03:11:47.242Z,946.46
2018-03-25T03:12:47.212Z,946.49
2018-03-25T03:13:47.182Z,946.46
2018-03-25T03:14:47.154Z,946.51
2018-03-25T03:15:47.127Z,946.53
2018-03-25T03:16:47.098Z,946.50
2018-03-25T03:17:47.070Z,946.49
2018-03-25T03:18:47.041Z,946.50
2018-03-25T03:19:47.014Z,946.47
2018-03-25T03:20:46.986Z,946.51
2018-03-25T03:21:46.957Z,946.53
2018-03-25T03:22:46.928Z,946.56
2018-03-25T03:23:46.901Z,946.57
2018-03-25T03:24:46.872Z,946.58
2018-03-25T03:25:46.850Z,946.58
2018-03-25T03:26:46.814Z,946.58
2018-03-25T03:27:46.787Z,946.54
2018-03-25T03:28:46.800Z,946.56
2018-03-25T03:29:46.730Z,946.56
2018-03-25T03:30:46.703Z,946.56
2018-03-25T03:31:46.674Z,946.55
2018-03-25T03:32:46.645Z,946.55
2018-03-25T03:33:46.616Z,946.57
2018-03-25T03:34:46.587Z,946.60
2018-03-25T03:35:46.560Z,946.61
2018-03-25T03:36:46.530Z,946.61
2018-03-25T03:37:46.507Z,946.64
2018-03-25T03:38:46.474Z,946.63
2018-03-25T03:39:46.446Z,946.62
2018-03-25T03:40:46.418Z,946.60
2018-03-25T03:41:46.389Z,946.64
2018-03-25T03:42:46.361Z,946.70
2018-03-25T03:43:46.331Z,946.67
2018-03-25T03:44:46.304Z,946.74
2018-03-25T03:45:46.277Z,946.76
2018-03-25T03:46:46.245Z,946.77
2018-03-25T03:47:46.218Z,946.78
2018-03-25T03:48:46.190Z,946.78
2018-03-25T03:49:46.161Z,946.78
2018-03-25T03:50:46.132Z,946.79
2018-03-25T03:51:46.103Z,946.80
2018-03-25T03:52:46.075Z,946.83
2018-03-25T03:53:46.046Z,946.81
2018-03-25T03:54:46.017Z,946.79
2018-03-25T03:55:45.988Z,946.79
2018-03-25T03:56:45.958Z,946.78
2018-03-25T03:57:45.933Z,946.75
2018-03-25T03:58:45.912Z,946.77
2018-03-25T03:59:45.873Z,946.80
2018-03-25T04:00:45.850Z,946.79
2018-03-25T04:01:45.817Z,946.82
2018-03-25T04:02:45.786Z,946.77
2018-03-25T04:03:45.760Z,946.72
2018-03-25T04:04:45.730Z,946.78
2018-03-25T04:05:45.702Z,946.75
2018-03-25T04:06:45.671Z,946.78
2018-03-25T04:07:45.644Z,946.74
2018-03-25T04:08:45.615Z,946.76
2018-03-25T04:09:45.586Z,946.79
2018-03-25T04:10:45.559Z,946.81
2018-03-25T04:11:45.530Z,946.79
2018-03-25T04:12:45.497Z,946.79
2018-03-25T04:13:45.470Z,946.78
2018-03-25T04:14:45.442Z,946.78
2018-03-25T04:15:45.412Z,946.76
2018-03-25T04:16:45.382Z,946.77
2018-03-25T04:17:45.355Z,946.73
2018-03-25T04:18:45.325Z,946.76
2018-03-25T04:19:45.297Z,946.77
2018-03-25T04:20:45.267Z,946.76
2018-03-25T04:21:45.239Z,946.76
2018-03-25T04:22:45.208Z,946.78
2018-03-25T04:23:45.179Z,946.76
2018-03-25T04:24:45.155Z,946.75
2018-03-25T04:25:45.124Z,946.77
2018-03-25T04:26:45.093Z,946.77
2018-03-25T04:27:45.064Z,946.81
2018-03-25T04:28:45.037Z,946.82
2018-03-25T04:29:45.007Z,946.83
2018-03-25T04:30:44.975Z,946.84
2018-03-25T04:31:44.951Z,946.87
2018-03-25T04:32:44.918Z,946.88
2018-03-25T04:33:44.890Z,946.88
2018-03-25T04:34:44.859Z,946.89
2018-03-25T04:35:44.831Z,946.95
2018-03-25T04:36:44.800Z,946.98
2018-03-25T04:37:44.773Z,946.99
2018-03-25T04:38:44.743Z,946.95
2018-03-25T04:39:44.715Z,946.97
2018-03-25T04:40:44.685Z,946.93
2018-03-25T04:41:44.655Z,946.94
2018-03-25T04:42:44.625Z,946.99
2018-03-25T04:43:44.597Z,946.98
2018-03-25T04:44:44.568Z,946.98
2018-03-25T04:45:44.539Z,947.04
2018-03-25T04:46:44.509Z,947.00
2018-03-25T04:47:44.480Z,947.00
2018-03-25T04:48:44.450Z,947.02
2018-03-25T04:49:44.421Z,947.04
2018-03-25T04:50:44.392Z,947.06
2018-03-25T04:51:44.365Z,947.07
2018-03-25T04:52:44.335Z,947.06
2018-03-25T04:53:44.306Z,947.06
2018-03-25T04:54:44.275Z,947.07
2018-03-25T04:55:44.246Z,947.08
2018-03-25T04:56:44.216Z,947.06
2018-03-25T04:57:44.188Z,947.07
2018-03-25T04:58:44.157Z,947.09
2018-03-25T04:59:44.128Z,947.07
2018-03-25T05:00:44.099Z,947.07
2018-03-25T05:01:44.070Z,947.08
2018-03-25T05:02:44.041Z,947.08
2018-03-25T05:03:44.012Z,947.10
2018-03-25T05:04:43.982Z,947.06
2018-03-25T05:05:43.953Z,947.11
2018-03-25T05:06:43.924Z,947.08
2018-03-25T05:07:43.894Z,947.10
2018-03-25T05:08:43.865Z,947.11
2018-03-25T05:09:43.835Z,947.15
2018-03-25T05:10:43.810Z,947.16
2018-03-25T05:11:43.776Z,947.14
2018-03-25T05:12:43.748Z,947.14
2018-03-25T05:13:43.719Z,947.17
2018-03-25T05:14:43.689Z,947.19
2018-03-25T05:15:43.659Z,947.20
2018-03-25T05:16:43.633Z,947.21
2018-03-25T05:17:43.603Z,947.24
2018-03-25T05:18:44.322Z,947.19
2018-03-25T05:19:43.544Z,947.23
2018-03-25T05:20:43.517Z,947.19
2018-03-25T05:21:43.490Z,947.20
2018-03-25T05:22:43.459Z,947.24
2018-03-25T05:23:43.430Z,947.25
2018-03-25T05:24:43.396Z,947.28
2018-03-25T05:25:43.372Z,947.26
2018-03-25T05:26:43.337Z,947.26
2018-03-25T05:27:43.308Z,947.31
2018-03-25T05:28:43.279Z,947.29
2018-03-25T05:29:43.249Z,947.32
2018-03-25T05:30:43.219Z,947.34
2018-03-25T05:31:43.191Z,947.33
2018-03-25T05:32:43.162Z,947.27
2018-03-25T05:33:43.135Z,947.28
2018-03-25T05:34:43.101Z,947.31
2018-03-25T05:35:43.074Z,947.30
2018-03-25T05:36:43.043Z,947.29
2018-03-25T05:37:43.017Z,947.31
2018-03-25T05:38:42.984Z,947.34
2018-03-25T05:39:42.956Z,947.33
2018-03-25T05:40:42.926Z,947.37
2018-03-25T05:41:42.897Z,947.35
2018-03-25T05:42:42.867Z,947.37
2018-03-25T05:43:42.839Z,947.37
2018-03-25T05:44:42.808Z,947.36
2018-03-25T05:45:42.780Z,947.38
2018-03-25T05:46:42.750Z,947.39
2018-03-25T05:47:42.719Z,947.39
2018-03-25T05:48:42.692Z,947.37
2018-03-25T05:49:42.663Z,947.40
2018-03-25T05:50:42.632Z,947.40
2018-03-25T05:51:42.602Z,947.41
2018-03-25T05:52:42.573Z,947.44
2018-03-25T05:53:42.544Z,947.41
2018-03-25T05:54:42.513Z,947.43
2018-03-25T05:55:42.485Z,947.47
2018-03-25T05:56:42.457Z,947.45
2018-03-25T05:57:42.429Z,947.49
2018-03-25T05:58:42.396Z,947.47
2018-03-25T05:59:42.371Z,947.49
2018-03-25T06:00:42.339Z,947.53
2018-03-25T06:01:42.308Z,947.56
2018-03-25T06:02:42.278Z,947.54
2018-03-25T06:03:42.252Z,947.56
2018-03-25T06:04:42.221Z,947.58
2018-03-25T06:05:42.192Z,947.61
2018-03-25T06:06:42.163Z,947.60
2018-03-25T06:07:42.135Z,947.62
2018-03-25T06:08:42.104Z,947.63
2018-03-25T06:09:42.075Z,947.64
2018-03-25T06:10:42.046Z,947.63
2018-03-25T06:11:42.018Z,947.64
2018-03-25T06:12:41.987Z,947.65
2018-03-25T06:13:41.960Z,947.64
2018-03-25T06:14:41.928Z,947.63
2018-03-25T06:15:42.651Z,947.70
2018-03-25T06:16:41.872Z,947.69
2018-03-25T06:17:41.841Z,947.70
2018-03-25T06:18:41.812Z,947.71
2018-03-25T06:19:41.785Z,947.72
2018-03-25T06:20:41.754Z,947.75
2018-03-25T06:21:41.727Z,947.75
2018-03-25T06:22:41.697Z,947.76
2018-03-25T06:23:41.667Z,947.73
2018-03-25T06:24:41.638Z,947.71
2018-03-25T06:25:41.627Z,947.77
2018-03-25T06:26:41.581Z,947.74
2018-03-25T06:27:41.551Z,947.75
2018-03-25T06:28:41.525Z,947.77
2018-03-25T06:29:41.496Z,947.76
2018-03-25T06:30:41.466Z,947.77
2018-03-25T06:31:41.438Z,947.76
2018-03-25T06:32:41.408Z,947.79
2018-03-25T06:33:41.382Z,947.80
2018-03-25T06:34:41.352Z,947.81
2018-03-25T06:35:41.323Z,947.82
2018-03-25T06:36:41.296Z,947.85
2018-03-25T06:37:41.268Z,947.86
2018-03-25T06:38:41.238Z,947.86
2018-03-25T06:39:41.210Z,947.88
2018-03-25T06:40:41.185Z,947.88
2018-03-25T06:41:41.154Z,947.89
2018-03-25T06:42:41.125Z,947.96
2018-03-25T06:43:41.097Z,947.94
2018-03-25T06:44:41.068Z,947.95
2018-03-25T06:45:41.041Z,947.98
2018-03-25T06:46:41.010Z,947.97
2018-03-25T06:47:40.984Z,947.95
2018-03-25T06:48:40.986Z,947.97
2018-03-25T06:49:40.927Z,948.00
2018-03-25T06:50:40.899Z,948.02
2018-03-25T06:51:40.871Z,948.07
2018-03-25T06:52:40.843Z,948.08
2018-03-25T06:53:40.816Z,948.07
2018-03-25T06:54:40.787Z,948.06
2018-03-25T06:55:40.760Z,948.13
2018-03-25T06:56:40.732Z,948.15
2018-03-25T06:57:40.704Z,948.15
2018-03-25T06:58:40.675Z,948.14
2018-03-25T06:59:40.648Z,948.16
2018-03-25T07:00:40.620Z,948.20
2018-03-25T07:01:40.593Z,948.18
2018-03-25T07:02:40.564Z,948.19
2018-03-25T07:03:40.536Z,948.17
2018-03-25T07:04:40.521Z,948.17
2018-03-25T07:05:40.480Z,948.22
2018-03-25T07:06:40.453Z,948.21
2018-03-25T07:07:41.178Z,948.22
2018-03-25T07:08:40.418Z,948.21
2018-03-25T07:09:40.371Z,948.23
2018-03-25T07:10:40.347Z,948.24
2018-03-25T07:11:40.314Z,948.27
2018-03-25T07:12:40.288Z,948.27
2018-03-25T07:13:40.281Z,948.28
2018-03-25T07:14:40.232Z,948.29
2018-03-25T07:15:40.205Z,948.36
2018-03-25T07:16:40.183Z,948.33
2018-03-25T07:17:40.149Z,948.36
2018-03-25T07:18:40.122Z,948.35
2018-03-25T07:19:40.099Z,948.33
2018-03-25T07:20:40.074Z,948.34
2018-03-25T07:21:40.040Z,948.37
2018-03-25T07:22:40.012Z,948.38
2018-03-25T07:23:41.486Z,948.40
2018-03-25T07:24:39.958Z,948.41
2018-03-25T07:25:39.930Z,948.40
2018-03-25T07:26:39.904Z,948.41
2018-03-25T07:27:39.876Z,948.43
2018-03-25T07:28:39.849Z,948.41
2018-03-25T07:29:40.572Z,948.45
2018-03-25T07:30:39.794Z,948.42
2018-03-25T07:31:39.767Z,948.47
2018-03-25T07:32:39.739Z,948.46
2018-03-25T07:33:39.714Z,948.44
2018-03-25T07:34:39.685Z,948.44
2018-03-25T07:35:39.659Z,948.51
2018-03-25T07:36:39.632Z,948.48
2018-03-25T07:37:39.617Z,948.54
2018-03-25T07:38:39.577Z,948.56
2018-03-25T07:39:39.550Z,948.60
2018-03-25T07:40:39.524Z,948.58
2018-03-25T07:41:39.503Z,948.61
2018-03-25T07:42:39.473Z,948.60
2018-03-25T07:43:39.443Z,948.61
2018-03-25T07:44:39.416Z,948.65
2018-03-25T07:45:39.388Z,948.66
2018-03-25T07:46:39.361Z,948.70
2018-03-25T07:47:39.337Z,948.68
2018-03-25T07:48:39.309Z,948.71
2018-03-25T07:49:39.282Z,948.74
2018-03-25T07:50:39.255Z,948.73
2018-03-25T07:51:39.228Z,948.72
2018-03-25T07:52:39.203Z,948.72
2018-03-25T07:53:39.176Z,948.72
2018-03-25T07:54:39.148Z,948.72
2018-03-25T07:55:39.123Z,948.72
2018-03-25T07:56:39.096Z,948.76
2018-03-25T07:57:39.071Z,948.75
2018-03-25T07:58:39.042Z,948.75
2018-03-25T07:59:39.017Z,948.77
2018-03-25T08:00:38.990Z,948.79
2018-03-25T08:01:38.964Z,948.78
2018-03-25T08:02:38.936Z,948.77
2018-03-25T08:03:38.910Z,948.81
2018-03-25T08:04:38.885Z,948.81
2018-03-25T08:05:38.859Z,948.81
2018-03-25T08:06:38.831Z,948.80
2018-03-25T08:07:38.805Z,948.84
2018-03-25T08:08:38.779Z,948.85
2018-03-25T08:09:38.753Z,948.86
2018-03-25T08:10:38.727Z,948.87
2018-03-25T08:11:38.701Z,948.82
2018-03-25T08:12:38.675Z,948.81
2018-03-25T08:13:38.648Z,948.85
2018-03-25T08:14:38.623Z,948.85
2018-03-25T08:15:38.596Z,948.84
2018-03-25T08:16:40.072Z,948.83
2018-03-25T08:17:38.545Z,948.80
2018-03-25T08:18:38.519Z,948.83
2018-03-25T08:19:38.492Z,948.83
2018-03-25T08:20:38.467Z,948.82
2018-03-25T08:21:38.441Z,948.85
2018-03-25T08:22:40.667Z,948.85
2018-03-25T08:23:38.393Z,948.84
2018-03-25T08:24:38.362Z,948.90
2018-03-25T08:25:38.338Z,948.91
2018-03-25T08:26:38.312Z,948.94
2018-03-25T08:27:38.286Z,948.93
2018-03-25T08:28:41.265Z,948.93
2018-03-25T08:29:38.234Z,948.95
2018-03-25T08:30:38.209Z,948.97
2018-03-25T08:31:38.184Z,948.91
2018-03-25T08:32:38.162Z,948.96
2018-03-25T08:33:38.133Z,949.01
2018-03-25T08:34:38.106Z,948.98
2018-03-25T08:35:38.082Z,948.98
2018-03-25T08:36:38.066Z,948.96
2018-03-25T08:37:38.035Z,948.96
2018-03-25T08:38:38.005Z,948.96
2018-03-25T08:39:37.979Z,948.97
2018-03-25T08:40:37.955Z,948.94
2018-03-25T08:41:37.928Z,948.92
2018-03-25T08:42:37.902Z,948.96
2018-03-25T08:43:37.878Z,948.94
2018-03-25T08:44:37.856Z,948.96
2018-03-25T08:45:37.832Z,948.97
2018-03-25T08:46:37.810Z,948.92
2018-03-25T08:47:37.775Z,948.92
2018-03-25T08:48:37.752Z,948.94
2018-03-25T08:49:37.728Z,948.92
2018-03-25T08:50:37.702Z,948.94
2018-03-25T08:51:37.675Z,948.94
2018-03-25T08:52:37.650Z,948.94
2018-03-25T08:53:37.626Z,948.92
2018-03-25T08:54:37.601Z,948.95
2018-03-25T08:55:37.618Z,948.93
2018-03-25T08:56:38.301Z,948.95
2018-03-25T08:57:37.525Z,948.98
2018-03-25T08:58:37.501Z,948.96
2018-03-25T08:59:37.475Z,948.97
2018-03-25T09:00:37.451Z,948.99
2018-03-25T09:01:37.427Z,948.95
2018-03-25T09:02:37.401Z,948.96
2018-03-25T09:03:37.382Z,948.97
2018-03-25T09:04:37.351Z,948.98
2018-03-25T09:05:37.328Z,948.98
2018-03-25T09:06:37.302Z,949.02
2018-03-25T09:07:39.529Z,948.97
2018-03-25T09:08:37.256Z,948.97
2018-03-25T09:09:37.227Z,948.96
2018-03-25T09:10:37.202Z,948.96
2018-03-25T09:11:37.184Z,948.97
2018-03-25T09:12:37.156Z,948.97
2018-03-25T09:13:37.880Z,948.99
2018-03-25T09:14:37.105Z,948.98
2018-03-25T09:15:37.080Z,948.97
2018-03-25T09:16:37.056Z,949.02
2018-03-25T09:17:37.032Z,949.03
2018-03-25T09:18:37.006Z,949.02
2018-03-25T09:19:36.983Z,949.02
2018-03-25T09:20:36.961Z,949.00
2018-03-25T09:21:36.934Z,949.04
2018-03-25T09:22:36.909Z,949.05
2018-03-25T09:23:36.885Z,949.04
2018-03-25T09:24:37.628Z,949.04
2018-03-25T09:25:36.838Z,949.06
2018-03-25T09:26:36.812Z,949.09
2018-03-25T09:27:36.787Z,949.04
2018-03-25T09:28:36.763Z,949.04
2018-03-25T09:29:36.739Z,949.06
2018-03-25T09:30:36.714Z,949.02
2018-03-25T09:31:36.690Z,949.02
2018-03-25T09:32:36.667Z,949.03
2018-03-25T09:33:36.641Z,949.02
2018-03-25T09:34:36.617Z,949.04
2018-03-25T09:35:36.594Z,949.04
2018-03-25T09:36:36.568Z,949.05
2018-03-25T09:37:36.547Z,949.01
2018-03-25T09:38:36.521Z,949.00
2018-03-25T09:39:36.496Z,949.05
2018-03-25T09:40:37.224Z,949.02
2018-03-25T09:41:36.448Z,949.07
2018-03-25T09:42:36.423Z,949.05
2018-03-25T09:43:36.403Z,949.06
2018-03-25T09:44:36.377Z,949.06
2018-03-25T09:45:36.352Z,949.07
2018-03-25T09:46:36.328Z,949.08
2018-03-25T09:47:36.305Z,949.05
2018-03-25T09:48:36.280Z,949.07
2018-03-25T09:49:36.258Z,949.07
2018-03-25T09:50:36.234Z,949.09
2018-03-25T09:51:36.210Z,949.07
2018-03-25T09:52:36.209Z,949.09
2018-03-25T09:53:36.164Z,949.03
2018-03-25T09:54:36.139Z,949.05
2018-03-25T09:55:36.118Z,949.05
2018-03-25T09:56:36.092Z,949.05
2018-03-25T09:57:36.069Z,949.04
2018-03-25T09:58:36.130Z,949.11
2018-03-25T09:59:36.021Z,949.11
2018-03-25T10:00:35.998Z,949.12
2018-03-25T10:01:35.976Z,949.09
2018-03-25T10:02:35.951Z,949.11
2018-03-25T10:03:35.933Z,949.12
2018-03-25T10:04:35.907Z,949.12
2018-03-25T10:05:35.882Z,949.11
2018-03-25T10:06:35.856Z,949.12
2018-03-25T10:07:35.833Z,949.08
2018-03-25T10:08:35.809Z,949.12
2018-03-25T10:09:35.787Z,949.10
2018-03-25T10:10:35.763Z,949.12
2018-03-25T10:11:36.491Z,949.15
2018-03-25T10:12:35.717Z,949.16
2018-03-25T10:13:35.695Z,949.13
2018-03-25T10:14:35.670Z,949.11
2018-03-25T10:15:35.646Z,949.11
2018-03-25T10:16:35.624Z,949.13
2018-03-25T10:17:35.599Z,949.12
2018-03-25T10:18:35.577Z,949.14
2018-03-25T10:19:35.554Z,949.13
2018-03-25T10:20:35.530Z,949.10
2018-03-25T10:21:35.508Z,949.09
2018-03-25T10:22:35.487Z,949.11
2018-03-25T10:23:35.461Z,949.10
2018-03-25T10:24:35.438Z,949.13
2018-03-25T10:25:35.416Z,949.09
2018-03-25T10:26:35.392Z,949.13
2018-03-25T10:27:35.374Z,949.13
2018-03-25T10:28:35.347Z,949.17
2018-03-25T10:29:35.323Z,949.17
2018-03-25T10:30:35.300Z,949.10
2018-03-25T10:31:35.277Z,949.14
2018-03-25T10:32:35.254Z,949.11
2018-03-25T10:33:35.233Z,949.11
2018-03-25T10:34:35.208Z,949.12
2018-03-25T10:35:35.184Z,949.13
2018-03-25T10:36:35.163Z,949.12
2018-03-25T10:37:35.139Z,949.09
2018-03-25T10:38:35.116Z,949.12
2018-03-25T10:39:35.094Z,949.09
2018-03-25T10:40:35.071Z,949.04
2018-03-25T10:41:35.049Z,949.11
2018-03-25T10:42:35.026Z,949.03
2018-03-25T10:43:35.011Z,949.03
2018-03-25T10:44:34.989Z,949.03
2018-03-25T10:45:34.958Z,949.05
2018-03-25T10:46:34.934Z,949.02
2018-03-25T10:47:34.912Z,949.03
2018-03-25T10:48:34.890Z,949.06
2018-03-25T10:49:34.875Z,949.01
2018-03-25T10:50:34.842Z,949.05
2018-03-25T10:51:34.820Z,949.06
2018-03-25T10:52:34.800Z,949.09
2018-03-25T10:53:34.777Z,949.11
2018-03-25T10:54:34.753Z,949.08
2018-03-25T10:55:34.730Z,949.07
2018-03-25T10:56:34.709Z,949.09
2018-03-25T10:57:34.685Z,949.08
2018-03-25T10:58:34.662Z,949.06
2018-03-25T10:59:34.640Z,949.07
2018-03-25T11:00:34.617Z,949.11
2018-03-25T11:01:34.596Z,949.03
2018-03-25T11:02:34.572Z,949.04
2018-03-25T11:03:34.550Z,949.05
2018-03-25T11:04:34.527Z,949.06
2018-03-25T11:05:34.506Z,949.07
2018-03-25T11:06:34.481Z,949.08
2018-03-25T11:07:34.460Z,949.11
2018-03-25T11:08:34.437Z,949.09
2018-03-25T11:09:34.415Z,949.07
2018-03-25T11:10:34.392Z,949.08
2018-03-25T11:11:34.374Z,949.08
2018-03-25T11:12:34.347Z,949.10
2018-03-25T11:13:34.323Z,949.10
2018-03-25T11:14:34.302Z,949.09
2018-03-25T11:15:34.279Z,949.06
2018-03-25T11:16:34.257Z,949.09
2018-03-25T11:17:34.235Z,949.06
2018-03-25T11:18:34.210Z,949.07
2018-03-25T11:19:34.189Z,949.09
2018-03-25T11:20:34.167Z,949.05
2018-03-25T11:21:34.143Z,949.05
2018-03-25T11:22:34.121Z,949.04
2018-03-25T11:23:34.098Z,949.12
2018-03-25T11:24:34.111Z,949.05
2018-03-25T11:25:34.055Z,949.04
2018-03-25T11:26:34.032Z,949.06
2018-03-25T11:27:34.008Z,949.04
2018-03-25T11:28:33.987Z,949.05
2018-03-25T11:29:33.965Z,948.99
2018-03-25T11:30:33.942Z,949.04
2018-03-25T11:31:33.919Z,949.01
2018-03-25T11:32:33.897Z,949.06
2018-03-25T11:33:33.876Z,949.04
2018-03-25T11:34:33.853Z,949.07
2018-03-25T11:35:33.832Z,949.04
2018-03-25T11:36:33.809Z,949.02
2018-03-25T11:37:33.787Z,949.04
2018-03-25T11:38:33.768Z,949.01
2018-03-25T11:39:33.741Z,949.02
2018-03-25T11:40:34.471Z,949.00
2018-03-25T11:41:33.699Z,949.00
2018-03-25T11:42:33.679Z,949.02
2018-03-25T11:43:33.654Z,949.01
2018-03-25T11:44:33.634Z,948.93
2018-03-25T11:45:33.612Z,948.99
2018-03-25T11:46:33.589Z,949.00
2018-03-25T11:47:33.618Z,949.03
2018-03-25T11:48:33.544Z,949.01
2018-03-25T11:49:33.524Z,949.00
2018-03-25T11:50:33.502Z,949.03
2018-03-25T11:51:33.480Z,949.02
2018-03-25T11:52:33.458Z,949.01
2018-03-25T11:53:33.437Z,949.00
2018-03-25T11:54:33.417Z,949.02
2018-03-25T11:55:33.391Z,949.00
2018-03-25T11:56:33.371Z,949.01
2018-03-25T11:57:33.349Z,948.93
2018-03-25T11:58:33.326Z,948.98
2018-03-25T11:59:33.311Z,948.98
2018-03-25T12:00:33.284Z,948.97
2018-03-25T12:01:33.263Z,949.02
2018-03-25T12:02:33.240Z,948.94
2018-03-25T12:03:33.218Z,948.95
2018-03-25T12:04:33.196Z,948.95
2018-03-25T12:05:33.176Z,948.99
2018-03-25T12:06:33.154Z,948.94
2018-03-25T12:07:33.132Z,948.93
2018-03-25T12:08:33.112Z,948.92
2018-03-25T12:09:33.090Z,948.93
2018-03-25T12:10:33.067Z,948.96
2018-03-25T12:11:33.053Z,948.94
2018-03-25T12:12:33.029Z,948.98
2018-03-25T12:13:33.003Z,948.94
2018-03-25T12:14:32.982Z,949.01
2018-03-25T12:15:32.961Z,948.99
2018-03-25T12:16:32.940Z,948.97
2018-03-25T12:17:32.919Z,948.99
2018-03-25T12:18:32.898Z,948.98
2018-03-25T12:19:32.874Z,948.96
2018-03-25T12:20:32.854Z,948.98
2018-03-25T12:21:32.832Z,948.97
2018-03-25T12:22:32.810Z,948.96
2018-03-25T12:23:32.790Z,948.91
2018-03-25T12:24:32.768Z,948.93
2018-03-25T12:25:32.748Z,948.95
2018-03-25T12:26:32.723Z,948.99
2018-03-25T12:27:32.704Z,948.98
2018-03-25T12:28:32.681Z,948.93